Time;durP1;ratioP1;P1;durP2;ratioP2;P2;SDS_P1;SDS_P2;PMS_P1;PMS_P2;Temp;Humidity;BMP_temperature;BMP_pressure;BME280_temperature;BME280_humidity;BME280_pressure;Samples;Min_cycle;Max_cycle;Signal;HPM_P1;HPM_P2
2023/07/01 00:01:55;;;;;;;6.00;4.73;;;15.90;99.90;;;;;;4995865;28;20615;-51
2023/07/01 00:04:23;;;;;;;5.30;4.80;;;15.90;99.90;;;;;;4994124;28;20220;-51
2023/07/01 00:06:50;;;;;;;5.67;4.97;;;15.90;99.90;;;;;;4994163;28;20201;-51
2023/07/01 00:09:17;;;;;;;5.53;4.40;;;16.00;99.90;;;;;;4992051;28;20229;-51
2023/07/01 00:11:44;;;;;;;5.33;4.93;;;16.00;99.90;;;;;;4989964;28;20204;-51
2023/07/01 00:14:11;;;;;;;5.37;4.87;;;16.00;99.90;;;;;;5006032;28;20708;-51
2023/07/01 00:16:39;;;;;;;4.87;4.47;;;16.00;99.90;;;;;;5013984;28;20235;-51
2023/07/01 00:19:07;;;;;;;5.33;4.93;;;16.00;99.90;;;;;;5013513;28;20231;-51
2023/07/01 00:21:35;;;;;;;4.97;4.57;;;16.10;99.90;;;;;;5009946;28;20203;-51
2023/07/01 00:24:02;;;;;;;5.40;4.50;;;16.10;99.90;;;;;;4991759;28;20256;-51
2023/07/01 00:26:29;;;;;;;5.03;4.40;;;16.10;99.90;;;;;;5002547;28;20203;-51
2023/07/01 00:28:56;;;;;;;5.07;4.63;;;16.10;99.90;;;;;;5003159;28;20195;-51
2023/07/01 00:31:23;;;;;;;5.30;4.80;;;16.10;99.90;;;;;;4986341;28;20207;-51
2023/07/01 00:33:50;;;;;;;4.83;4.40;;;16.20;99.90;;;;;;4995245;28;20802;-51
2023/07/01 00:36:17;;;;;;;4.17;3.77;;;16.20;99.90;;;;;;4996255;28;20342;-51
2023/07/01 00:38:45;;;;;;;6.10;4.10;;;16.10;99.90;;;;;;4994075;28;20602;-51
2023/07/01 00:41:12;;;;;;;4.13;3.77;;;16.10;99.90;;;;;;5013794;28;20640;-51
2023/07/01 00:43:40;;;;;;;5.23;4.37;;;16.20;99.90;;;;;;4997365;28;20204;-53
2023/07/01 00:46:07;;;;;;;4.90;4.30;;;16.20;99.90;;;;;;4997420;28;20220;-51
2023/07/01 00:48:34;;;;;;;5.20;4.57;;;16.20;99.90;;;;;;5001568;28;20261;-51
2023/07/01 00:51:01;;;;;;;4.63;4.23;;;16.20;99.90;;;;;;5004841;28;20252;-51
2023/07/01 00:53:28;;;;;;;5.27;4.50;;;16.20;99.90;;;;;;5012765;28;20211;-51
2023/07/01 00:55:56;;;;;;;4.60;4.20;;;16.20;99.90;;;;;;5013103;28;20223;-51
2023/07/01 00:58:23;;;;;;;4.33;4.03;;;16.20;99.90;;;;;;5006772;28;20310;-51
2023/07/01 01:00:50;;;;;;;4.20;3.87;;;16.20;99.90;;;;;;4996411;28;20563;-51
2023/07/01 01:03:26;;;;;;;4.47;4.07;;;16.20;99.90;;;;;;5005907;28;20195;-51
2023/07/01 01:06:02;;;;;;;4.47;4.10;;;16.20;99.90;;;;;;5013004;28;20227;-51
2023/07/01 01:08:37;;;;;;;4.00;3.70;;;16.20;99.90;;;;;;5012949;28;20203;-51
2023/07/01 01:11:06;;;;;;;4.00;3.80;;;16.20;99.90;;;;;;5006180;28;20203;-51
2023/07/01 01:13:34;;;;;;;4.53;4.23;;;16.20;99.90;;;;;;4997443;28;20204;-51
2023/07/01 01:16:02;;;;;;;4.53;4.23;;;16.20;99.90;;;;;;4990502;28;20270;-51
2023/07/01 01:18:31;;;;;;;4.63;4.33;;;16.30;99.90;;;;;;5007573;28;20223;-51
2023/07/01 01:20:59;;;;;;;4.33;3.43;;;16.30;99.90;;;;;;4995245;28;20210;-51
2023/07/01 01:23:28;;;;;;;4.47;4.13;;;16.30;99.90;;;;;;4987656;28;20263;-51
2023/07/01 01:26:06;;;;;;;4.73;4.33;;;16.30;99.90;;;;;;5002573;28;20282;-51
2023/07/01 01:28:35;;;;;;;4.43;4.13;;;16.30;99.90;;;;;;5005682;28;20290;-51
2023/07/01 01:31:02;;;;;;;3.67;3.37;;;16.30;99.90;;;;;;4991199;28;20258;-51
2023/07/01 01:33:29;;;;;;;4.57;4.27;;;16.20;99.90;;;;;;5000570;28;20200;-51
2023/07/01 01:36:09;;;;;;;4.37;4.07;;;16.30;99.90;;;;;;4991605;28;20250;-51
2023/07/01 01:38:40;;;;;;;4.90;4.10;;;16.20;99.90;;;;;;5000631;28;20570;-51
2023/07/01 01:41:12;;;;;;;5.13;4.73;;;16.20;99.90;;;;;;4992634;28;20274;-51
2023/07/01 01:43:47;;;;;;;5.67;4.47;;;16.20;99.90;;;;;;4992168;28;20204;-51
2023/07/01 01:46:16;;;;;;;4.80;4.40;;;16.20;99.90;;;;;;4993982;28;20231;-51
2023/07/01 01:48:43;;;;;;;4.70;4.33;;;16.20;99.90;;;;;;4989607;28;20246;-51
2023/07/01 01:51:10;;;;;;;4.30;3.93;;;16.20;99.90;;;;;;5000042;28;20674;-51
2023/07/01 01:53:39;;;;;;;3.90;3.70;;;16.20;99.90;;;;;;4992092;28;20204;-51
2023/07/01 01:56:07;;;;;;;4.73;4.33;;;16.20;99.90;;;;;;4994887;28;20641;-51
2023/07/01 01:58:35;;;;;;;4.93;4.63;;;16.20;99.90;;;;;;5000232;28;20215;-51
2023/07/01 02:01:03;;;;;;;6.50;5.40;;;16.20;99.90;;;;;;5002459;28;20207;-52
2023/07/01 02:03:30;;;;;;;4.17;3.83;;;16.20;99.90;;;;;;5006796;28;20233;-51
2023/07/01 02:05:57;;;;;;;4.40;4.00;;;16.20;99.90;;;;;;5002014;28;20227;-52
2023/07/01 02:08:24;;;;;;;4.70;4.30;;;16.20;99.90;;;;;;4989933;28;20204;-51
2023/07/01 02:10:51;;;;;;;5.23;4.70;;;16.20;99.90;;;;;;4998335;28;20199;-52
2023/07/01 02:13:18;;;;;;;4.70;4.20;;;16.30;99.90;;;;;;4993284;28;20253;-52
2023/07/01 02:15:45;;;;;;;5.23;4.83;;;16.30;99.90;;;;;;5003396;28;20227;-51
2023/07/01 02:18:13;;;;;;;5.23;4.73;;;16.20;99.90;;;;;;5011503;28;20218;-51
2023/07/01 02:20:40;;;;;;;5.73;4.90;;;16.20;99.90;;;;;;4993699;28;20205;-52
2023/07/01 02:23:07;;;;;;;6.03;5.53;;;16.20;99.90;;;;;;4996783;28;20210;-51
2023/07/01 02:25:34;;;;;;;5.13;4.63;;;16.20;99.90;;;;;;4996503;28;20227;-51
2023/07/01 02:28:01;;;;;;;3.93;3.70;;;16.20;99.90;;;;;;4986206;28;20192;-52
2023/07/01 02:30:28;;;;;;;5.43;5.03;;;16.20;99.90;;;;;;5003296;28;20657;-51
2023/07/01 02:32:55;;;;;;;4.33;4.03;;;16.20;99.90;;;;;;5007679;28;20249;-52
2023/07/01 02:35:23;;;;;;;5.40;5.00;;;16.20;99.90;;;;;;4999088;28;20283;-52
2023/07/01 02:37:50;;;;;;;7.47;6.27;;;16.20;99.90;;;;;;4997340;28;20258;-52
2023/07/01 02:40:17;;;;;;;5.70;4.93;;;16.20;99.90;;;;;;4996468;28;20214;-52
2023/07/01 02:42:44;;;;;;;5.10;4.70;;;16.20;99.90;;;;;;4998929;28;20199;-52
2023/07/01 02:45:11;;;;;;;7.10;4.63;;;16.20;99.90;;;;;;4997105;28;20286;-52
2023/07/01 02:47:38;;;;;;;5.00;4.60;;;16.20;99.90;;;;;;4991634;28;20204;-52
2023/07/01 02:50:06;;;;;;;4.67;4.23;;;16.20;99.90;;;;;;5011029;28;20230;-52
2023/07/01 02:52:35;;;;;;;5.00;4.50;;;16.20;99.90;;;;;;5006584;28;20207;-52
2023/07/01 02:55:02;;;;;;;5.33;4.93;;;16.20;99.90;;;;;;4997151;28;20217;-52
2023/07/01 02:57:31;;;;;;;5.13;4.73;;;16.20;99.90;;;;;;4989761;28;20248;-52
2023/07/01 02:59:59;;;;;;;4.87;4.53;;;16.20;99.90;;;;;;4982406;28;20243;-52
2023/07/01 03:02:26;;;;;;;6.40;5.80;;;16.20;99.90;;;;;;4996031;28;20444;-52
2023/07/01 03:04:53;;;;;;;5.10;4.70;;;16.20;99.90;;;;;;4999312;28;20220;-52
2023/07/01 03:07:20;;;;;;;5.43;4.93;;;16.30;99.90;;;;;;5011125;28;20616;-52
2023/07/01 03:09:48;;;;;;;4.97;4.57;;;16.30;99.90;;;;;;4995628;28;20255;-52
2023/07/01 03:12:15;;;;;;;5.60;5.10;;;16.30;99.90;;;;;;4990998;28;20267;-52
2023/07/01 03:14:43;;;;;;;5.30;4.90;;;16.30;99.90;;;;;;5007524;28;20219;-52
2023/07/01 03:17:11;;;;;;;4.43;4.03;;;16.30;99.90;;;;;;5006033;28;20208;-51
2023/07/01 03:19:40;;;;;;;5.90;5.37;;;16.20;99.90;;;;;;4994516;28;20225;-52
2023/07/01 03:22:07;;;;;;;5.30;4.80;;;16.30;99.90;;;;;;4999250;28;20196;-52
2023/07/01 03:24:34;;;;;;;5.30;4.73;;;16.30;99.90;;;;;;4991993;28;20220;-52
2023/07/01 03:27:04;;;;;;;5.43;4.73;;;16.30;99.90;;;;;;4998043;28;20269;-52
2023/07/01 03:29:31;;;;;;;5.80;5.33;;;16.30;99.90;;;;;;4984639;28;20629;-51
2023/07/01 03:31:58;;;;;;;6.07;5.53;;;16.40;99.90;;;;;;4975740;28;20259;-51
2023/07/01 03:34:25;;;;;;;5.40;4.47;;;16.40;99.90;;;;;;5016858;22;20256;-60
2023/07/01 03:36:52;;;;;;;4.70;4.30;;;16.40;99.90;;;;;;5030883;28;20292;-60
2023/07/01 03:39:19;;;;;;;5.60;5.20;;;16.40;99.90;;;;;;5034648;28;20280;-60
2023/07/01 03:41:46;;;;;;;5.37;4.87;;;16.40;99.90;;;;;;5034193;28;20202;-60
2023/07/01 03:44:15;;;;;;;5.13;4.63;;;16.30;99.90;;;;;;5034443;28;20206;-60
2023/07/01 03:46:42;;;;;;;5.67;5.03;;;16.30;99.90;;;;;;5034435;28;20280;-60
2023/07/01 03:49:09;;;;;;;7.47;5.03;;;16.20;99.90;;;;;;5033037;28;20381;-60
2023/07/01 03:51:36;;;;;;;5.13;4.73;;;16.20;99.90;;;;;;5031626;28;20194;-60
2023/07/01 03:54:03;;;;;;;4.87;4.53;;;16.20;99.90;;;;;;5033911;28;20257;-59
2023/07/01 03:56:30;;;;;;;6.73;5.90;;;16.20;99.90;;;;;;5034099;28;20716;-60
2023/07/01 03:58:56;;;;;;;4.97;4.17;;;16.20;99.90;;;;;;5032153;28;20218;-59
2023/07/01 04:01:26;;;;;;;4.77;4.37;;;16.10;99.90;;;;;;5033922;28;20202;-60
2023/07/01 04:03:53;;;;;;;5.70;5.20;;;16.10;99.90;;;;;;5024970;28;20203;-60
2023/07/01 04:06:20;;;;;;;4.87;4.47;;;16.20;99.90;;;;;;5029004;28;20248;-60
2023/07/01 04:08:54;;;;;;;6.27;5.33;;;16.10;99.90;;;;;;5030411;28;20194;-60
2023/07/01 04:11:21;;;;;;;5.50;5.10;;;16.10;99.90;;;;;;5034211;28;20644;-59
2023/07/01 04:13:48;;;;;;;3.47;3.23;;;16.10;99.90;;;;;;5032228;28;20245;-60
2023/07/01 04:16:15;;;;;;;4.57;3.90;;;16.10;99.90;;;;;;5033948;28;20280;-59
2023/07/01 04:18:43;;;;;;;3.90;3.70;;;16.10;99.90;;;;;;5033786;28;20226;-59
2023/07/01 04:21:10;;;;;;;9.37;4.20;;;16.10;99.90;;;;;;5033734;28;20202;-60
2023/07/01 04:23:37;;;;;;;4.83;3.93;;;16.10;99.90;;;;;;5032427;28;20630;-59
2023/07/01 04:26:05;;;;;;;4.40;4.10;;;16.00;99.90;;;;;;5032036;28;20245;-60
2023/07/01 04:28:32;;;;;;;4.90;4.50;;;16.00;99.90;;;;;;5033545;28;20257;-59
2023/07/01 04:30:59;;;;;;;4.57;4.17;;;16.00;99.90;;;;;;5033740;28;20234;-60
2023/07/01 04:33:26;;;;;;;4.33;3.93;;;16.00;99.90;;;;;;5033435;28;20592;-59
2023/07/01 04:35:54;;;;;;;7.17;4.47;;;16.00;99.90;;;;;;5032565;28;20238;-59
2023/07/01 04:38:21;;;;;;;4.20;4.00;;;16.00;99.90;;;;;;5033608;28;20198;-59
2023/07/01 04:40:48;;;;;;;4.50;4.20;;;16.10;99.90;;;;;;5031508;28;20664;-60
2023/07/01 04:43:16;;;;;;;4.47;4.17;;;16.10;99.90;;;;;;5033108;28;20229;-59
2023/07/01 04:45:43;;;;;;;5.90;4.77;;;16.00;99.90;;;;;;5033355;28;20276;-59
2023/07/01 04:48:10;;;;;;;5.10;4.47;;;16.10;99.90;;;;;;5030901;28;20661;-60
2023/07/01 04:50:37;;;;;;;4.43;4.03;;;16.10;99.90;;;;;;5029441;28;20260;-60
2023/07/01 04:53:06;;;;;;;3.60;3.30;;;16.00;99.90;;;;;;5032944;28;20195;-60
2023/07/01 04:55:33;;;;;;;3.77;3.57;;;16.00;99.90;;;;;;5033428;28;20291;-59
2023/07/01 04:58:00;;;;;;;3.77;3.47;;;16.00;99.90;;;;;;5029397;28;20230;-59
2023/07/01 05:00:27;;;;;;;3.83;3.53;;;16.00;99.90;;;;;;5028949;28;20264;-59
2023/07/01 05:02:54;;;;;;;3.40;3.13;;;16.00;99.90;;;;;;5032785;28;20202;-60
2023/07/01 05:05:21;;;;;;;3.50;3.20;;;16.00;99.90;;;;;;5031107;28;20231;-60
2023/07/01 05:07:48;;;;;;;4.20;3.90;;;16.00;99.90;;;;;;5032288;28;20248;-59
2023/07/01 05:10:16;;;;;;;4.70;3.77;;;16.00;99.90;;;;;;5032894;28;20276;-60
2023/07/01 05:12:43;;;;;;;3.43;3.23;;;16.10;99.90;;;;;;5032689;28;20260;-59
2023/07/01 05:15:11;;;;;;;4.17;3.90;;;16.10;99.90;;;;;;5032765;28;20218;-60
2023/07/01 05:17:38;;;;;;;4.00;3.80;;;16.10;99.90;;;;;;5032662;28;20206;-60
2023/07/01 05:20:06;;;;;;;4.70;4.30;;;16.10;99.90;;;;;;5030704;28;20218;-60
2023/07/01 05:22:33;;;;;;;4.93;4.50;;;16.00;99.90;;;;;;5020045;28;20222;-60
2023/07/01 05:25:00;;;;;;;3.83;3.63;;;16.00;99.90;;;;;;5032181;28;20218;-60
2023/07/01 05:27:32;;;;;;;3.57;3.37;;;16.10;99.90;;;;;;5032266;28;20203;-59
2023/07/01 05:29:59;;;;;;;3.57;3.30;;;16.10;99.90;;;;;;5030147;28;20279;-60
2023/07/01 05:32:26;;;;;;;4.30;4.00;;;16.10;99.90;;;;;;5026300;28;20230;-59
2023/07/01 05:34:53;;;;;;;3.57;3.33;;;16.00;99.90;;;;;;5032013;28;20238;-60
2023/07/01 05:37:20;;;;;;;3.13;2.93;;;16.10;99.90;;;;;;5032331;28;20202;-60
2023/07/01 05:39:47;;;;;;;2.90;2.80;;;16.10;99.90;;;;;;5032167;28;20215;-60
2023/07/01 05:42:14;;;;;;;2.67;2.57;;;16.00;99.90;;;;;;5028999;28;20294;-60
2023/07/01 05:44:42;;;;;;;3.30;3.20;;;16.00;99.90;;;;;;5030770;28;20203;-60
2023/07/01 05:47:09;;;;;;;3.50;3.30;;;16.00;99.90;;;;;;5030771;28;20203;-60
2023/07/01 05:49:36;;;;;;;3.00;2.77;;;16.00;99.90;;;;;;5031428;28;20199;-60
2023/07/01 05:52:04;;;;;;;3.07;2.83;;;16.00;99.90;;;;;;5031012;28;20194;-60
2023/07/01 05:54:31;;;;;;;3.43;3.13;;;16.00;99.90;;;;;;5031823;28;20194;-60
2023/07/01 05:56:58;;;;;;;2.63;2.50;;;16.00;99.90;;;;;;5029937;28;20260;-60
2023/07/01 05:59:25;;;;;;;3.37;3.20;;;16.00;99.90;;;;;;5031518;28;20273;-60
2023/07/01 06:01:54;;;;;;;4.07;3.67;;;16.00;99.90;;;;;;5030033;28;20257;-60
2023/07/01 06:04:21;;;;;;;3.80;2.80;;;16.00;99.90;;;;;;5030931;28;20254;-60
2023/07/01 06:06:48;;;;;;;2.63;2.53;;;16.10;99.90;;;;;;5031269;28;20198;-59
2023/07/01 06:09:17;;;;;;;3.20;3.00;;;16.10;99.90;;;;;;5030234;28;20261;-60
2023/07/01 06:11:44;;;;;;;3.40;3.13;;;16.10;99.90;;;;;;5032503;28;20214;-60
2023/07/01 06:14:10;;;;;;;2.80;2.60;;;16.10;99.90;;;;;;5031862;28;20194;-59
2023/07/01 06:16:38;;;;;;;3.50;3.40;;;16.10;99.90;;;;;;5030168;28;20222;-60
2023/07/01 06:19:06;;;;;;;3.50;3.23;;;16.20;99.90;;;;;;5029661;28;20205;-59
2023/07/01 06:21:34;;;;;;;3.23;3.00;;;16.20;99.90;;;;;;5031901;28;20202;-60
2023/07/01 06:24:05;;;;;;;4.33;4.03;;;16.30;99.90;;;;;;5031382;28;20210;-59
2023/07/01 06:26:32;;;;;;;4.60;3.63;;;16.30;99.90;;;;;;5029716;28;20297;-59
2023/07/01 06:29:02;;;;;;;4.07;3.67;;;16.40;99.90;;;;;;5029829;28;20210;-59
2023/07/01 06:31:31;;;;;;;4.57;4.27;;;16.40;99.90;;;;;;5031383;28;20286;-60
2023/07/01 06:33:58;;;;;;;4.50;4.17;;;16.50;99.90;;;;;;5034963;28;20195;-59
2023/07/01 06:36:26;;;;;;;3.90;3.70;;;16.60;99.90;;;;;;5044158;28;20280;-59
2023/07/01 06:38:56;;;;;;;4.27;4.07;;;16.60;99.90;;;;;;5029497;28;20199;-59
2023/07/01 06:41:24;;;;;;;4.53;4.23;;;16.60;99.90;;;;;;5030142;28;20198;-58
2023/07/01 06:43:52;;;;;;;4.13;3.93;;;16.60;99.90;;;;;;5030067;28;20199;-60
2023/07/01 06:46:20;;;;;;;3.60;3.30;;;16.60;99.90;;;;;;5028860;28;20253;-59
2023/07/01 06:48:47;;;;;;;3.23;3.13;;;16.70;99.90;;;;;;5034272;28;20203;-59
2023/07/01 06:51:15;;;;;;;3.10;3.00;;;16.70;99.90;;;;;;5031059;28;20199;-59
2023/07/01 06:53:43;;;;;;;3.07;2.90;;;16.80;99.90;;;;;;5032746;28;20264;-60
2023/07/01 06:56:10;;;;;;;3.30;2.97;;;16.80;99.90;;;;;;5031210;28;20621;-59
2023/07/01 06:58:40;;;;;;;2.47;2.23;;;16.90;99.90;;;;;;5029860;28;20198;-59
2023/07/01 07:01:07;;;;;;;2.90;2.67;;;17.00;99.90;;;;;;5034778;28;20305;-59
2023/07/01 07:03:37;;;;;;;3.23;2.77;;;17.10;99.90;;;;;;5034594;28;20218;-59
2023/07/01 07:06:04;;;;;;;2.73;2.00;;;17.20;99.90;;;;;;5034937;28;20250;-59
2023/07/01 07:08:31;;;;;;;2.60;2.50;;;17.30;99.90;;;;;;5033820;28;20746;-59
2023/07/01 07:10:59;;;;;;;2.77;2.60;;;17.40;99.90;;;;;;5033164;28;20257;-59
2023/07/01 07:13:26;;;;;;;3.13;2.92;;;17.60;99.90;;;;;;5031646;28;20552;-65
2023/07/01 07:15:55;;;;;;;2.90;2.63;;;17.90;99.90;;;;;;5030169;28;20300;-60
2023/07/01 07:18:22;;;;;;;6.10;2.77;;;18.20;99.90;;;;;;5015082;28;20203;-62
2023/07/01 07:20:49;;;;;;;2.50;2.40;;;18.40;99.90;;;;;;5021368;28;20226;-72
2023/07/01 07:23:16;;;;;;;3.03;2.87;;;18.50;99.90;;;;;;5034547;28;20208;-62
2023/07/01 07:25:43;;;;;;;2.30;2.20;;;18.70;99.90;;;;;;5032944;28;20214;-61
2023/07/01 07:28:11;;;;;;;2.97;2.87;;;18.90;99.90;;;;;;5034436;28;20199;-63
2023/07/01 07:30:39;;;;;;;2.97;2.83;;;19.20;99.90;;;;;;5034533;28;20203;-62
2023/07/01 07:33:07;;;;;;;3.57;2.83;;;19.40;99.90;;;;;;5032498;28;20209;-63
2023/07/01 07:35:34;;;;;;;3.17;2.90;;;19.70;99.90;;;;;;5034328;28;20313;-64
2023/07/01 07:38:01;;;;;;;7.43;2.80;;;19.80;99.90;;;;;;5032638;28;20257;-63
2023/07/01 07:40:28;;;;;;;2.77;2.67;;;19.80;99.90;;;;;;5034216;28;20218;-62
2023/07/01 07:42:55;;;;;;;3.27;3.07;;;19.70;99.90;;;;;;5024783;28;20229;-62
2023/07/01 07:45:23;;;;;;;3.43;3.17;;;19.80;99.90;;;;;;5032419;28;20227;-66
2023/07/01 07:47:50;;;;;;;3.53;3.23;;;19.70;99.90;;;;;;5033762;28;20198;-68
2023/07/01 07:50:21;;;;;;;3.20;3.00;;;19.70;99.90;;;;;;5034475;28;20249;-66
2023/07/01 07:52:48;;;;;;;4.87;3.53;;;19.70;99.90;;;;;;5031840;28;20198;-65
2023/07/01 07:55:15;;;;;;;2.93;2.73;;;19.80;99.90;;;;;;5030836;28;20233;-66
2023/07/01 07:57:42;;;;;;;3.93;2.90;;;19.80;99.90;;;;;;5033465;28;20206;-69
2023/07/01 08:00:10;;;;;;;3.10;2.90;;;19.80;99.90;;;;;;5032293;28;20215;-68
2023/07/01 08:02:44;;;;;;;3.13;2.97;;;19.70;99.90;;;;;;5033691;28;20203;-59
2023/07/01 08:05:15;;;;;;;4.73;3.37;;;19.70;99.90;;;;;;5031970;28;20218;-63
2023/07/01 08:07:42;;;;;;;3.10;2.93;;;19.70;99.90;;;;;;5021986;28;20261;-63
2023/07/01 08:10:10;;;;;;;3.87;3.57;;;19.80;99.90;;;;;;5023328;28;20244;-63
2023/07/01 08:12:37;;;;;;;4.10;3.80;;;19.80;99.90;;;;;;5031790;28;20234;-62
2023/07/01 08:15:05;;;;;;;3.47;3.27;;;19.80;99.90;;;;;;5030619;28;20223;-63
2023/07/01 08:17:32;;;;;;;3.23;3.07;;;20.00;99.90;;;;;;5033576;28;20272;-64
2023/07/01 08:20:00;;;;;;;3.17;2.87;;;20.10;99.90;;;;;;5032821;28;20218;-63
2023/07/01 08:22:30;;;;;;;3.33;3.23;;;20.20;99.90;;;;;;5032766;28;20619;-64
2023/07/01 08:24:58;;;;;;;4.23;3.57;;;20.50;99.90;;;;;;5030781;28;20230;-62
2023/07/01 08:27:25;;;;;;;3.50;3.30;;;20.50;99.90;;;;;;5032428;28;20619;-61
2023/07/01 08:29:52;;;;;;;3.63;3.37;;;20.50;99.90;;;;;;5032472;28;20257;-60
2023/07/01 08:32:19;;;;;;;3.03;2.93;;;20.60;99.90;;;;;;5032652;28;20202;-58
2023/07/01 08:34:46;;;;;;;2.80;2.70;;;20.70;99.90;;;;;;5032279;28;20643;-58
2023/07/01 08:37:15;;;;;;;3.63;3.43;;;20.80;99.90;;;;;;5033262;28;20276;-59
2023/07/01 08:39:42;;;;;;;2.97;2.73;;;21.00;99.90;;;;;;5033488;28;20206;-61
2023/07/01 08:42:14;;;;;;;3.10;3.00;;;21.20;99.90;;;;;;5032992;28;20689;-61
2023/07/01 08:44:42;;;;;;;2.93;2.83;;;21.10;99.90;;;;;;5032201;28;20203;-60
2023/07/01 08:47:09;;;;;;;2.83;2.73;;;21.10;99.90;;;;;;5025176;28;20202;-60
2023/07/01 08:49:40;;;;;;;3.50;3.30;;;21.10;99.90;;;;;;5033140;28;20248;-61
2023/07/01 08:52:12;;;;;;;3.47;3.07;;;21.40;99.90;;;;;;5031739;28;20260;-61
2023/07/01 08:54:41;;;;;;;3.57;3.37;;;21.50;99.90;;;;;;5033109;28;20195;-61
2023/07/01 08:57:09;;;;;;;3.67;3.40;;;21.60;99.90;;;;;;5032985;28;20213;-61
2023/07/01 08:59:37;;;;;;;4.10;3.90;;;21.60;99.90;;;;;;5032864;28;20234;-60
2023/07/01 09:02:05;;;;;;;3.60;3.40;;;21.30;99.90;;;;;;5032822;28;20284;-61
2023/07/01 09:04:32;;;;;;;3.53;3.43;;;21.30;99.90;;;;;;5031782;28;20206;-61
2023/07/01 09:06:59;;;;;;;4.27;3.47;;;21.30;99.90;;;;;;5029733;28;20694;-60
2023/07/01 09:09:26;;;;;;;3.10;3.00;;;21.40;99.90;;;;;;5031613;28;20207;-61
2023/07/01 09:11:55;;;;;;;3.70;3.47;;;21.50;99.90;;;;;;5031685;28;20261;-61
2023/07/01 09:14:22;;;;;;;3.47;3.37;;;21.50;99.90;;;;;;5032262;28;20199;-62
2023/07/01 09:16:49;;;;;;;3.20;3.07;;;21.40;99.90;;;;;;5032511;28;20245;-62
2023/07/01 09:19:16;;;;;;;3.83;3.53;;;21.50;99.90;;;;;;5032798;28;20210;-61
2023/07/01 09:21:44;;;;;;;3.00;2.80;;;21.20;99.90;;;;;;5031592;28;20253;-62
2023/07/01 09:24:12;;;;;;;3.67;3.37;;;21.00;99.90;;;;;;5032271;28;20191;-62
2023/07/01 09:26:39;;;;;;;3.60;3.40;;;21.00;99.90;;;;;;5032108;28;20232;-61
2023/07/01 09:29:15;;;;;;;3.50;3.40;;;21.10;99.90;;;;;;5032409;28;20264;-62
2023/07/01 09:31:46;;;;;;;3.83;3.53;;;21.20;99.90;;;;;;5032317;28;20206;-62
2023/07/01 09:34:12;;;;;;;3.50;3.30;;;21.20;99.90;;;;;;5031788;28;20201;-62
2023/07/01 09:36:39;;;;;;;3.63;3.33;;;21.40;99.90;;;;;;5101962;22;20260;-63
2023/07/01 09:39:06;;;;;;;4.33;3.17;;;21.50;99.90;;;;;;5049990;28;20194;-62
2023/07/01 09:41:33;;;;;;;4.03;3.83;;;21.50;99.90;;;;;;5051841;28;20222;-63
2023/07/01 09:44:01;;;;;;;4.73;4.30;;;21.60;99.90;;;;;;5051471;28;20201;-64
2023/07/01 09:46:41;;;;;;;3.80;3.60;;;21.80;99.90;;;;;;5051674;28;20230;-63
2023/07/01 09:49:08;;;;;;;3.13;2.93;;;22.10;99.90;;;;;;5051712;28;20197;-64
2023/07/01 09:51:46;;;;;;;3.50;3.40;;;22.30;99.90;;;;;;5049433;28;20194;-62
2023/07/01 09:54:24;;;;;;;3.80;3.70;;;22.40;99.90;;;;;;5043958;28;20223;-64
2023/07/01 09:56:53;;;;;;;3.50;3.30;;;22.40;99.90;;;;;;5051440;28;20231;-63
2023/07/01 09:59:21;;;;;;;3.70;3.43;;;22.20;99.90;;;;;;5051546;28;20667;-63
2023/07/01 10:01:50;;;;;;;6.47;3.87;;;22.60;99.90;;;;;;5051295;28;20253;-66
2023/07/01 10:04:21;;;;;;;2.97;2.77;;;23.10;99.90;;;;;;5050700;28;20210;-65
2023/07/01 10:06:48;;;;;;;3.43;3.23;;;23.50;99.90;;;;;;5050545;28;20598;-66
2023/07/01 10:09:15;;;;;;;3.43;3.33;;;23.80;99.90;;;;;;5051064;28;20242;-63
2023/07/01 10:11:42;;;;;;;6.23;4.27;;;24.10;99.90;;;;;;5051400;28;20202;-65
2023/07/01 10:14:11;;;;;;;4.13;3.93;;;24.30;99.90;;;;;;5051232;28;20198;-64
2023/07/01 10:16:46;;;;;;;3.70;3.50;;;24.90;99.90;;;;;;5050198;28;20788;-67
2023/07/01 10:19:29;;;;;;;4.20;3.80;;;26.00;99.90;;;;;;5040053;28;20208;-63
2023/07/01 10:22:20;;;;;;;4.33;4.07;;;26.00;99.90;;;;;;5043062;28;20221;-63
2023/07/01 10:24:55;;;;;;;3.40;3.20;;;26.60;99.90;;;;;;5046931;28;20197;-63
2023/07/01 10:27:58;;;;;;;3.37;3.17;;;27.00;99.90;;;;;;5049187;28;20784;-66
2023/07/01 10:30:26;;;;;;;4.70;4.30;;;27.40;99.90;;;;;;5045825;28;20289;-68
2023/07/01 10:32:53;;;;;;;3.20;3.10;;;27.50;99.90;;;;;;5049019;28;20259;-68
2023/07/01 10:35:22;;;;;;;3.30;2.75;;;27.80;99.90;;;;;;5049885;28;20226;-68
2023/07/01 10:38:24;;;;;;;4.40;4.30;;;28.00;99.90;;;;;;5067556;28;20235;-68
2023/07/01 10:40:51;;;;;;;3.78;3.50;;;27.70;99.90;;;;;;5040285;28;20217;-66
2023/07/01 10:43:30;;;;;;;2.95;2.75;;;27.40;99.90;;;;;;5045245;28;20313;-67
2023/07/01 10:46:10;;;;;;;2.63;2.53;;;26.90;99.90;;;;;;5049277;28;20410;-59
2023/07/01 10:48:38;;;;;;;2.67;2.55;;;26.60;99.90;;;;;;5036018;28;20231;-59
2023/07/01 10:51:08;;;;;;;2.92;2.72;;;26.50;99.90;;;;;;5043505;28;20303;-59
2023/07/01 10:53:58;;;;;;;2.70;2.65;;;26.90;99.90;;;;;;5046697;28;20197;-59
2023/07/01 10:56:26;;;;;;;2.45;2.35;;;27.30;99.90;;;;;;5049685;28;20221;-59
2023/07/01 10:59:25;;;;;;;2.97;2.85;;;27.40;99.90;;;;;;5049569;28;20269;-59
2023/07/01 11:01:56;;;;;;;2.88;2.70;;;26.90;99.90;;;;;;5050693;28;20305;-59
2023/07/01 11:04:24;;;;;;;2.95;2.85;;;26.60;99.90;;;;;;5049781;28;20212;-58
2023/07/01 11:06:53;;;;;;;3.13;2.92;;;26.30;99.90;;;;;;5046194;28;20591;-60
2023/07/01 11:09:32;;;;;;;2.45;2.35;;;26.30;99.90;;;;;;5051109;28;20579;-59
2023/07/01 11:12:00;;;;;;;2.58;2.47;;;26.60;99.90;;;;;;5051089;28;20263;-59
2023/07/01 11:14:32;;;;;;;2.78;2.67;;;27.00;99.90;;;;;;5042311;28;20533;-65
2023/07/01 11:17:06;;;;;;;2.13;1.95;;;26.90;99.90;;;;;;5049101;28;20342;-66
2023/07/01 11:19:34;;;;;;;2.00;2.00;;;26.60;99.90;;;;;;5049147;28;20212;-67
2023/07/01 11:22:02;;;;;;;1.85;1.83;;;26.70;99.90;;;;;;5047266;28;20226;-66
2023/07/01 11:24:30;;;;;;;4.78;2.38;;;26.60;99.90;;;;;;5052334;28;20202;-67
2023/07/01 11:27:03;;;;;;;2.30;2.20;;;26.30;99.90;;;;;;5049722;28;20467;-67
2023/07/01 11:29:30;;;;;;;2.17;2.17;;;26.20;99.90;;;;;;5048887;28;20252;-67
2023/07/01 11:31:59;;;;;;;4.57;2.40;;;26.10;99.90;;;;;;5040528;28;20206;-59
2023/07/01 11:34:27;;;;;;;2.22;2.13;;;26.30;99.90;;;;;;5048294;28;20247;-65
2023/07/01 11:36:55;;;;;;;2.05;2.00;;;26.20;99.90;;;;;;5050043;28;20234;-65
2023/07/01 11:39:24;;;;;;;2.60;2.50;;;25.90;99.90;;;;;;5048416;28;20206;-64
2023/07/01 11:41:53;;;;;;;2.38;2.28;;;25.80;99.90;;;;;;5050123;28;20230;-62
2023/07/01 11:44:22;;;;;;;3.47;3.10;;;25.80;99.90;;;;;;5048713;28;20219;-63
2023/07/01 11:46:49;;;;;;;2.30;2.20;;;25.50;99.90;;;;;;5050417;28;20218;-63
2023/07/01 11:49:18;;;;;;;2.90;2.80;;;25.50;99.90;;;;;;5053380;28;20663;-64
2023/07/01 11:51:47;;;;;;;2.85;2.65;;;25.40;99.90;;;;;;5042421;28;20202;-63
2023/07/01 11:54:15;;;;;;;2.77;2.07;;;25.40;99.90;;;;;;5032787;28;20270;-58
2023/07/01 11:56:44;;;;;;;3.45;3.13;;;25.20;99.90;;;;;;5029998;28;20464;-55
2023/07/01 11:59:11;;;;;;;3.50;3.03;;;25.10;99.90;;;;;;5051574;28;20210;-55
2023/07/01 12:01:39;;;;;;;3.33;3.03;;;24.80;99.90;;;;;;5050243;28;20268;-56
2023/07/01 12:04:17;;;;;;;2.07;1.97;;;24.70;99.90;;;;;;5053891;28;20206;-56
2023/07/01 12:06:45;;;;;;;1.90;1.90;;;24.80;99.90;;;;;;5053293;28;20222;-56
2023/07/01 12:09:28;;;;;;;1.70;1.70;;;25.00;99.90;;;;;;5047025;28;20198;-55
2023/07/01 12:11:57;;;;;;;1.83;1.83;;;25.10;99.90;;;;;;5053373;28;20744;-55
2023/07/01 12:14:25;;;;;;;1.80;1.80;;;25.40;99.90;;;;;;5053335;28;20210;-56
2023/07/01 12:16:53;;;;;;;2.33;2.23;;;25.50;99.90;;;;;;5049280;28;20280;-55
2023/07/01 12:19:21;;;;;;;3.07;2.97;;;25.50;99.90;;;;;;5042816;28;20256;-53
2023/07/01 12:21:50;;;;;;;3.23;2.77;;;25.10;99.90;;;;;;5052153;28;20291;-54
2023/07/01 12:24:18;;;;;;;4.57;2.87;;;24.90;99.90;;;;;;5050263;28;20202;-53
2023/07/01 12:26:45;;;;;;;3.70;3.40;;;24.90;99.90;;;;;;5051269;28;20222;-53
2023/07/01 12:29:14;;;;;;;2.27;2.23;;;24.70;99.90;;;;;;5052186;28;20660;-53
2023/07/01 12:31:41;;;;;;;2.30;2.20;;;24.70;99.90;;;;;;5052874;28;20280;-53
2023/07/01 12:34:08;;;;;;;2.80;2.70;;;24.80;99.90;;;;;;5050843;28;20718;-54
2023/07/01 12:36:36;;;;;;;3.13;2.83;;;24.70;99.90;;;;;;5049346;28;20468;-65
2023/07/01 12:39:04;;;;;;;2.90;2.80;;;24.80;99.90;;;;;;5046927;28;20300;-66
2023/07/01 12:41:31;;;;;;;3.43;3.23;;;24.70;99.90;;;;;;5047775;28;20221;-53
2023/07/01 12:43:58;;;;;;;2.23;2.13;;;24.60;99.90;;;;;;5050297;28;20197;-56
2023/07/01 12:46:27;;;;;;;3.43;3.23;;;24.70;99.90;;;;;;5048392;28;20275;-56
2023/07/01 12:48:54;;;;;;;2.80;2.70;;;24.80;99.90;;;;;;5049763;28;20286;-56
2023/07/01 12:51:22;;;;;;;2.57;2.40;;;24.80;99.90;;;;;;5051000;28;20265;-55
2023/07/01 12:53:49;;;;;;;2.43;2.33;;;24.80;99.90;;;;;;5050294;28;20202;-56
2023/07/01 12:56:16;;;;;;;3.13;3.03;;;24.90;99.90;;;;;;5050676;28;20248;-56